createdAt,value
2023-01-23T00:01:12.235Z,21.30
2023-01-23T00:06:07.571Z,19.00
2023-01-23T00:11:00.845Z,16.48
2023-01-23T00:15:55.441Z,16.50
2023-01-23T00:20:48.691Z,17.38
2023-01-23T00:25:42.013Z,19.70
2023-01-23T00:30:35.476Z,15.68
2023-01-23T00:35:35.717Z,15.60
2023-01-23T00:40:29.016Z,14.40
2023-01-23T00:45:22.244Z,13.45
2023-01-23T00:50:15.883Z,16.75
2023-01-23T00:55:11.711Z,15.15
2023-01-23T01:00:06.360Z,14.27
2023-01-23T01:04:59.803Z,17.33
2023-01-23T01:09:53.227Z,16.80
2023-01-23T01:14:47.834Z,15.65
2023-01-23T01:19:41.789Z,17.20
2023-01-23T01:24:35.205Z,16.45
2023-01-23T01:29:28.475Z,17.05
2023-01-23T01:34:23.743Z,16.45
2023-01-23T01:39:17.022Z,17.75
2023-01-23T01:44:15.989Z,20.38
2023-01-23T01:49:12.685Z,15.95
2023-01-23T01:54:13.292Z,16.65
2023-01-23T01:59:07.767Z,18.90
2023-01-23T02:04:02.208Z,20.02
2023-01-23T02:09:03.946Z,17.70
2023-01-23T02:13:59.151Z,21.88
2023-01-23T02:18:57.610Z,20.63
2023-01-23T02:24:03.182Z,18.92
2023-01-23T02:28:59.414Z,17.33
2023-01-23T02:39:04.066Z,19.08
2023-01-23T02:44:02.467Z,19.27
2023-01-23T02:48:56.189Z,23.35
2023-01-23T02:53:51.250Z,24.42
2023-01-23T02:59:02.645Z,21.42
2023-01-23T03:08:50.413Z,23.88
2023-01-23T03:13:43.670Z,23.15
2023-01-23T03:18:52.836Z,26.27
2023-01-23T03:23:48.889Z,21.85
2023-01-23T03:28:59.856Z,24.27
2023-01-23T03:33:53.902Z,21.27
2023-01-23T03:39:02.416Z,23.30
2023-01-23T03:43:57.598Z,22.77
2023-01-23T03:48:52.129Z,26.77
2023-01-23T03:53:45.623Z,21.75
2023-01-23T03:58:40.290Z,20.85
2023-01-23T04:03:33.831Z,24.15
2023-01-23T04:08:27.296Z,19.35
2023-01-23T04:13:21.300Z,24.23
2023-01-23T04:18:16.120Z,26.75
2023-01-23T04:23:09.353Z,19.08
2023-01-23T04:28:03.820Z,24.63
2023-01-23T04:32:57.230Z,21.83
2023-01-23T04:37:51.784Z,20.00
2023-01-23T04:42:45.304Z,25.17
2023-01-23T04:47:53.152Z,20.98
2023-01-23T04:52:46.504Z,24.83
2023-01-23T04:57:41.860Z,19.33
2023-01-23T05:02:47.539Z,22.73
2023-01-23T05:07:41.969Z,25.05
2023-01-23T05:12:39.541Z,20.35
2023-01-23T05:17:34.668Z,20.88
2023-01-23T05:22:28.807Z,21.13
2023-01-23T05:27:22.072Z,19.87
2023-01-23T05:32:16.994Z,25.20
2023-01-23T05:37:11.654Z,24.03
2023-01-23T05:42:07.018Z,19.85
2023-01-23T05:47:28.583Z,24.03
2023-01-23T05:52:27.279Z,18.10
2023-01-23T05:57:21.043Z,21.63
2023-01-23T06:02:32.934Z,18.67
2023-01-23T06:07:50.711Z,19.07
2023-01-23T06:12:44.110Z,18.17
2023-01-23T06:17:37.419Z,17.67
2023-01-23T06:22:31.576Z,20.37
2023-01-23T06:27:33.783Z,20.90
2023-01-23T06:32:30.594Z,23.00
2023-01-23T06:37:24.242Z,20.87
2023-01-23T06:42:17.569Z,22.80
2023-01-23T06:47:16.803Z,23.17
2023-01-23T06:52:12.376Z,21.10
2023-01-23T06:57:05.900Z,19.27
2023-01-23T07:02:00.356Z,17.43
2023-01-23T07:07:07.051Z,13.23
2023-01-23T07:12:00.561Z,14.10
2023-01-23T07:16:56.107Z,13.50
2023-01-23T07:21:51.107Z,13.40
2023-01-23T07:26:45.732Z,14.13
2023-01-23T07:31:38.950Z,14.30
2023-01-23T07:36:32.313Z,12.20
2023-01-23T07:41:25.701Z,12.10
2023-01-23T07:46:22.206Z,15.47
2023-01-23T07:51:18.185Z,13.93
2023-01-23T07:56:11.467Z,14.20
2023-01-23T08:01:09.862Z,15.37
2023-01-23T08:06:04.609Z,13.90
2023-01-23T08:10:57.894Z,16.10
2023-01-23T08:15:53.528Z,16.50
2023-01-23T08:20:54.243Z,15.37
2023-01-23T08:30:48.381Z,15.07
2023-01-23T08:35:41.558Z,16.43
2023-01-23T08:40:34.861Z,14.07
2023-01-23T08:45:29.524Z,12.87
2023-01-23T08:50:24.844Z,14.10
2023-01-23T08:55:18.195Z,15.07
2023-01-23T09:00:12.780Z,16.43
2023-01-23T09:05:08.668Z,15.90
2023-01-23T09:10:01.898Z,12.67
2023-01-23T09:14:55.079Z,14.10
2023-01-23T09:19:48.332Z,18.67
2023-01-23T09:24:42.935Z,13.73
2023-01-23T09:29:36.053Z,16.37
2023-01-23T09:34:29.347Z,12.23
2023-01-23T09:39:22.556Z,14.30
2023-01-23T09:44:21.634Z,11.63
2023-01-23T09:49:22.125Z,15.10
2023-01-23T09:54:26.818Z,18.75
2023-01-23T09:59:29.275Z,14.80
2023-01-23T10:04:23.582Z,14.87
2023-01-23T10:09:36.959Z,12.20
2023-01-23T10:14:50.936Z,15.50
2023-01-23T10:20:01.150Z,17.40
2023-01-23T10:24:56.800Z,15.60
2023-01-23T10:29:57.572Z,20.20
2023-01-23T10:34:57.314Z,18.17
2023-01-23T10:39:55.048Z,15.07
2023-01-23T10:44:48.919Z,19.33
2023-01-23T10:49:45.938Z,21.73
2023-01-23T10:54:47.492Z,21.20
2023-01-23T10:59:51.125Z,19.53
2023-01-23T11:04:48.080Z,20.20
2023-01-23T11:09:49.967Z,20.47
2023-01-23T11:14:43.078Z,20.77
2023-01-23T11:19:38.640Z,23.93
2023-01-23T11:24:41.024Z,25.43
2023-01-23T11:29:55.012Z,23.23
2023-01-23T11:34:53.205Z,22.50
2023-01-23T11:39:55.969Z,24.27
2023-01-23T11:44:52.764Z,21.70
2023-01-23T11:50:03.569Z,22.17
2023-01-23T11:55:15.024Z,17.90
2023-01-23T12:00:23.364Z,22.77
2023-01-23T12:05:48.354Z,25.63
2023-01-23T12:10:54.598Z,23.90
2023-01-23T12:16:01.741Z,23.43
2023-01-23T12:21:04.466Z,28.00
2023-01-23T12:26:08.937Z,19.73
2023-01-23T12:31:14.767Z,24.93
2023-01-23T12:36:21.934Z,24.53
2023-01-23T12:41:23.930Z,24.40
2023-01-23T12:46:21.003Z,23.13
2023-01-23T12:51:19.786Z,23.93
2023-01-23T12:56:22.289Z,27.10
2023-01-23T13:01:35.914Z,27.20
2023-01-23T13:06:47.273Z,28.87
2023-01-23T13:16:50.018Z,30.63
2023-01-23T13:22:04.910Z,28.07
2023-01-23T13:26:59.530Z,25.03
2023-01-23T13:32:24.362Z,24.63
2023-01-23T13:37:51.451Z,26.47
2023-01-23T13:42:46.254Z,21.77
2023-01-23T14:25:17.697Z,27.53
2023-01-23T14:30:19.310Z,25.88
2023-01-23T14:35:21.245Z,19.63
2023-01-23T14:40:26.580Z,21.70
2023-01-23T14:45:22.606Z,21.27
2023-01-23T14:50:20.847Z,25.80
2023-01-23T14:55:29.868Z,22.50
2023-01-23T15:00:29.908Z,19.23
2023-01-23T15:05:27.032Z,21.23
2023-01-23T15:10:24.343Z,22.47
2023-01-23T15:15:21.735Z,22.97
2023-01-23T15:20:38.797Z,22.33
2023-01-23T15:25:37.841Z,21.83
2023-01-23T15:30:38.347Z,24.47
2023-01-23T15:35:34.506Z,24.40
2023-01-23T15:40:29.766Z,22.27
2023-01-23T15:45:23.334Z,22.67
2023-01-23T15:50:17.453Z,25.47
2023-01-23T15:55:13.682Z,24.50
2023-01-23T16:00:16.072Z,22.37
2023-01-23T16:05:12.701Z,24.63
2023-01-23T16:10:19.991Z,25.97
2023-01-23T16:15:26.300Z,25.37
2023-01-23T16:20:27.691Z,25.23
2023-01-23T16:25:41.982Z,24.67
2023-01-23T16:30:37.985Z,26.90
2023-01-23T16:35:33.992Z,25.23
2023-01-23T16:40:29.067Z,25.93
2023-01-23T16:45:25.243Z,28.43
2023-01-23T16:50:24.126Z,27.50
2023-01-23T16:55:23.112Z,30.77
2023-01-23T17:00:34.104Z,36.33
2023-01-23T17:10:37.833Z,30.43
2023-01-23T17:15:38.716Z,28.73
2023-01-23T17:20:33.898Z,28.47
2023-01-23T17:25:44.978Z,27.07
2023-01-23T17:30:48.632Z,31.93
2023-01-23T17:35:46.209Z,29.10
2023-01-23T17:40:40.733Z,30.37
2023-01-23T17:45:34.811Z,27.70
2023-01-23T17:50:28.459Z,31.13
2023-01-23T17:55:25.644Z,27.87
2023-01-23T18:00:21.092Z,31.30
2023-01-23T18:05:20.766Z,29.30
2023-01-23T18:10:15.427Z,38.53
2023-01-23T18:15:16.689Z,32.33
2023-01-23T18:20:19.325Z,26.47
2023-01-23T18:25:15.916Z,33.20
2023-01-23T18:30:23.089Z,35.00
2023-01-23T18:35:30.610Z,32.37
2023-01-23T18:40:31.152Z,35.00
2023-01-23T18:45:28.114Z,30.83
2023-01-23T18:50:29.134Z,30.43
2023-01-23T18:55:29.952Z,32.47
2023-01-23T19:00:33.351Z,37.90
2023-01-23T19:05:32.960Z,35.40
2023-01-23T19:10:32.502Z,39.83
2023-01-23T19:15:34.869Z,34.83
2023-01-23T19:20:34.871Z,39.78
2023-01-23T19:25:31.644Z,34.05
2023-01-23T19:30:29.563Z,33.57
2023-01-23T19:35:25.946Z,30.50
2023-01-23T19:40:21.098Z,37.33
2023-01-23T19:45:18.156Z,31.23
2023-01-23T19:50:19.444Z,32.90
2023-01-23T19:55:25.041Z,29.03
2023-01-23T20:00:19.766Z,26.17
2023-01-23T20:05:13.504Z,26.30
2023-01-23T20:10:08.566Z,23.87
2023-01-23T20:15:03.267Z,24.27
2023-01-23T20:19:57.237Z,17.90
2023-01-23T20:24:51.589Z,18.90
2023-01-23T20:29:45.441Z,17.47
2023-01-23T20:34:40.141Z,16.67
2023-01-23T20:39:33.364Z,16.57
2023-01-23T20:44:29.649Z,18.23
2023-01-23T20:49:27.962Z,14.40
2023-01-23T20:54:22.619Z,15.13
2023-01-23T20:59:24.102Z,16.73
2023-01-23T21:04:17.426Z,12.63
2023-01-23T21:09:10.627Z,14.07
2023-01-23T21:14:05.434Z,14.77
2023-01-23T21:18:58.666Z,14.60
2023-01-23T21:23:52.550Z,12.57
2023-01-23T21:28:48.536Z,14.50
2023-01-23T21:33:44.954Z,17.10
2023-01-23T21:38:38.367Z,15.00
2023-01-23T21:43:32.330Z,13.27
2023-01-23T21:48:28.829Z,12.13
2023-01-23T21:53:23.517Z,9.60
2023-01-23T21:58:16.810Z,11.33
2023-01-23T22:03:10.069Z,12.53
2023-01-23T22:08:03.351Z,12.60
2023-01-23T22:12:58.088Z,10.50
2023-01-23T22:17:51.645Z,10.53
2023-01-23T22:22:45.012Z,9.20
2023-01-23T22:27:38.237Z,11.60
2023-01-23T22:32:33.888Z,12.50
2023-01-23T22:37:27.181Z,11.37
2023-01-23T22:42:21.128Z,12.40
2023-01-23T22:47:14.502Z,10.73
2023-01-23T22:52:09.440Z,9.10
2023-01-23T22:57:02.847Z,10.03
2023-01-23T23:01:56.101Z,10.10
2023-01-23T23:06:51.487Z,8.90
2023-01-23T23:11:49.038Z,9.60
2023-01-23T23:16:45.495Z,9.83
2023-01-23T23:21:39.171Z,10.00
2023-01-23T23:26:33.178Z,9.40
2023-01-23T23:31:28.136Z,8.20
2023-01-23T23:36:21.451Z,9.40
2023-01-23T23:41:16.060Z,9.73
2023-01-23T23:46:11.193Z,8.03
2023-01-23T23:51:07.792Z,10.37
2023-01-23T23:56:00.968Z,8.40
